< < Back
Terminal Aerodrome Forecast


Current Version              Previous Versions:   1  2  3  4  5  6  7  8  9  

Terminal Aerodrome Forecast

006
FTUS42 KJAX 242000 AAB
TAFJAX
TAF AMD
KJAX 242038Z 2421/2518 24010KT P6SM VCSH SCT040 BKN250
      TEMPO 2421/2422 SHRA BKN040
     FM250100 23004KT P6SM SCT250
     FM251300 26008KT P6SM SCT040 SCT120 BKN250
     FM251700 24006KT P6SM VCTS SCT040CB BKN100 BKN250=

Latest METAR

364
SAUS80 KWBC 251800 RRB
MTRJAX
METAR KJAX 251756Z COR VRB06KT 10SM SCT045 SCT200 32/22 A3003 RMK AO2
SLP169 CB DSNT SE -SW T03220222 10339 20256 58011 $


USA.gov is the U.S. government's official web portal to all federal, state and local government web resources and services.